createdAt,value
2017-04-02T00:00:31.888Z,8.82
2017-04-02T00:01:38.316Z,9.83
2017-04-02T00:02:43.099Z,10.80
2017-04-02T00:03:48.617Z,10.65
2017-04-02T00:04:55.032Z,12.78
2017-04-02T00:05:59.684Z,11.25
2017-04-02T00:07:05.158Z,12.42
2017-04-02T00:08:10.813Z,10.48
2017-04-02T00:09:16.289Z,10.38
2017-04-02T00:10:21.860Z,8.27
2017-04-02T00:11:27.308Z,7.72
2017-04-02T00:12:32.841Z,6.25
2017-04-02T00:13:37.525Z,6.63
2017-04-02T00:14:43.169Z,5.88
2017-04-02T00:15:48.636Z,5.53
2017-04-02T00:16:54.294Z,5.93
2017-04-02T00:18:00.641Z,5.30
2017-04-02T00:19:05.469Z,5.20
2017-04-02T00:20:11.812Z,6.02
2017-04-02T00:21:17.570Z,5.60
2017-04-02T00:22:23.342Z,5.65
2017-04-02T00:23:28.808Z,5.87
2017-04-02T00:24:34.465Z,6.22
2017-04-02T00:25:39.189Z,5.38
2017-04-02T00:26:44.829Z,6.05
2017-04-02T00:27:50.293Z,5.88
2017-04-02T00:28:56.698Z,5.65
2017-04-02T00:30:01.494Z,6.28
2017-04-02T00:31:07.092Z,5.88
2017-04-02T00:32:13.669Z,5.85
2017-04-02T00:33:19.257Z,6.10
2017-04-02T00:34:25.038Z,6.13
2017-04-02T00:35:29.869Z,5.90
2017-04-02T00:36:36.060Z,5.07
2017-04-02T00:37:41.188Z,6.70
2017-04-02T00:38:47.358Z,6.73
2017-04-02T00:39:52.045Z,6.37
2017-04-02T00:40:57.601Z,6.68
2017-04-02T00:42:02.996Z,6.37
2017-04-02T00:43:07.688Z,6.33
2017-04-02T00:44:13.237Z,6.12
2017-04-02T00:45:18.765Z,6.28
2017-04-02T00:46:25.040Z,6.23
2017-04-02T00:47:29.709Z,5.57
2017-04-02T00:48:36.229Z,6.55
2017-04-02T00:49:40.972Z,6.57
2017-04-02T00:50:46.551Z,5.95
2017-04-02T00:51:52.910Z,6.60
2017-04-02T00:52:57.750Z,6.65
2017-04-02T00:54:04.176Z,6.43
2017-04-02T00:55:08.918Z,6.15
2017-04-02T00:56:15.201Z,6.55
2017-04-02T00:57:20.028Z,5.57
2017-04-02T00:58:25.569Z,6.87
2017-04-02T00:59:31.300Z,6.17
2017-04-02T01:00:36.733Z,5.83
2017-04-02T01:01:43.013Z,6.65
2017-04-02T01:02:48.552Z,6.75
2017-04-02T01:03:53.413Z,6.70
2017-04-02T01:04:59.073Z,5.82
2017-04-02T01:06:04.498Z,7.60
2017-04-02T01:07:09.980Z,6.25
2017-04-02T01:08:15.576Z,5.75
2017-04-02T01:09:21.197Z,6.70
2017-04-02T01:10:27.480Z,5.83
2017-04-02T01:11:33.896Z,6.40
2017-04-02T01:12:38.649Z,6.25
2017-04-02T01:13:45.041Z,6.15
2017-04-02T01:14:49.837Z,5.53
2017-04-02T01:15:55.465Z,5.83
2017-04-02T01:17:01.888Z,6.12
2017-04-02T01:18:07.443Z,6.00
2017-04-02T01:19:12.186Z,5.78
2017-04-02T01:20:18.521Z,5.45
2017-04-02T01:21:23.393Z,6.28
2017-04-02T01:22:29.652Z,7.22
2017-04-02T01:23:35.361Z,6.87
2017-04-02T01:24:40.149Z,6.53
2017-04-02T01:25:45.800Z,6.43
2017-04-02T01:26:52.183Z,6.70
2017-04-02T01:27:56.805Z,6.78
2017-04-02T01:29:01.443Z,6.47
2017-04-02T01:30:06.852Z,6.38
2017-04-02T01:31:12.393Z,6.32
2017-04-02T01:32:19.584Z,6.35
2017-04-02T01:33:24.388Z,6.33
2017-04-02T01:34:29.094Z,6.50
2017-04-02T01:35:35.321Z,5.93
2017-04-02T01:36:40.380Z,6.28
2017-04-02T01:37:45.884Z,6.30
2017-04-02T01:38:51.392Z,6.53
2017-04-02T01:39:56.941Z,5.85
2017-04-02T01:41:02.427Z,6.20
2017-04-02T01:42:07.934Z,6.10
2017-04-02T01:43:13.676Z,5.80
2017-04-02T01:44:18.530Z,5.30
2017-04-02T01:45:24.117Z,5.60
2017-04-02T01:46:29.625Z,5.70
2017-04-02T01:47:36.009Z,5.23
2017-04-02T01:48:42.445Z,5.48
2017-04-02T01:49:47.140Z,5.32
2017-04-02T01:50:52.633Z,5.15
2017-04-02T01:51:58.152Z,5.23
2017-04-02T01:53:03.793Z,5.65
2017-04-02T01:54:10.221Z,5.37
2017-04-02T01:55:15.116Z,5.48
2017-04-02T01:56:20.616Z,5.37
2017-04-02T01:57:25.273Z,5.18
2017-04-02T01:58:30.809Z,5.55
2017-04-02T01:59:38.185Z,5.05
2017-04-02T02:00:43.017Z,5.42
2017-04-02T02:01:48.577Z,5.22
2017-04-02T02:02:54.938Z,5.32
2017-04-02T02:04:00.504Z,5.10
2017-04-02T02:05:05.375Z,5.13
2017-04-02T02:06:11.746Z,5.18
2017-04-02T02:07:17.173Z,5.30
2017-04-02T02:08:22.197Z,5.70
2017-04-02T02:09:26.965Z,5.53
2017-04-02T02:10:33.228Z,5.75
2017-04-02T02:11:38.121Z,5.33
2017-04-02T02:12:44.500Z,4.80
2017-04-02T02:13:49.328Z,5.97
2017-04-02T02:14:55.688Z,4.93
2017-04-02T02:16:00.381Z,5.45
2017-04-02T02:17:05.129Z,5.77
2017-04-02T02:18:11.359Z,5.60
2017-04-02T02:19:16.876Z,5.17
2017-04-02T02:20:21.770Z,5.53
2017-04-02T02:21:27.381Z,5.28
2017-04-02T02:22:33.029Z,5.28
2017-04-02T02:23:39.343Z,6.15
2017-04-02T02:24:44.943Z,5.85
2017-04-02T02:25:50.557Z,6.28
2017-04-02T02:26:56.040Z,5.60
2017-04-02T02:28:00.902Z,5.92
2017-04-02T02:29:06.405Z,5.65
2017-04-02T02:30:12.761Z,5.60
2017-04-02T02:31:17.572Z,5.68
2017-04-02T02:32:23.029Z,5.73
2017-04-02T02:33:29.268Z,5.72
2017-04-02T02:34:34.042Z,5.53
2017-04-02T02:35:39.569Z,6.17
2017-04-02T02:36:45.244Z,5.75
2017-04-02T02:37:51.501Z,5.55
2017-04-02T02:38:56.534Z,5.55
2017-04-02T02:40:02.909Z,5.58
2017-04-02T02:41:08.487Z,6.50
2017-04-02T02:42:13.345Z,6.00
2017-04-02T02:43:19.681Z,5.92
2017-04-02T02:44:24.444Z,5.90
2017-04-02T02:45:29.807Z,6.25
2017-04-02T02:46:35.241Z,6.15
2017-04-02T02:47:40.769Z,5.95
2017-04-02T02:48:47.129Z,5.60
2017-04-02T02:49:52.784Z,6.23
2017-04-02T02:50:57.570Z,6.12
2017-04-02T02:52:03.302Z,5.90
2017-04-02T02:53:09.460Z,5.83
2017-04-02T02:54:14.448Z,5.67
2017-04-02T02:55:20.021Z,6.35
2017-04-02T02:56:25.504Z,5.80
2017-04-02T02:57:30.980Z,6.37
2017-04-02T02:58:37.329Z,6.07
2017-04-02T02:59:43.861Z,6.20
2017-04-02T03:00:49.545Z,6.10
2017-04-02T03:01:54.446Z,5.60
2017-04-02T03:02:59.940Z,5.58
2017-04-02T03:04:05.465Z,5.92
2017-04-02T03:05:11.106Z,6.17
2017-04-02T03:06:16.693Z,6.15
2017-04-02T03:07:22.182Z,6.65
2017-04-02T03:08:27.796Z,5.48
2017-04-02T03:09:34.252Z,5.45
2017-04-02T03:10:40.116Z,5.05
2017-04-02T03:11:44.871Z,6.13
2017-04-02T03:12:50.502Z,5.58
2017-04-02T03:13:55.961Z,5.53
2017-04-02T03:15:01.525Z,5.35
2017-04-02T03:16:07.896Z,6.30
2017-04-02T03:17:12.833Z,5.80
2017-04-02T03:18:18.434Z,6.42
2017-04-02T03:19:24.884Z,6.13
2017-04-02T03:20:30.348Z,6.88
2017-04-02T03:21:36.005Z,6.72
2017-04-02T03:22:40.665Z,6.45
2017-04-02T03:23:46.215Z,6.60
2017-04-02T03:24:51.844Z,6.07
2017-04-02T03:25:57.399Z,5.63
2017-04-02T03:27:03.000Z,6.63
2017-04-02T03:28:09.326Z,6.10
2017-04-02T03:29:14.261Z,5.83
2017-04-02T03:30:18.968Z,6.55
2017-04-02T03:31:24.497Z,6.30
2017-04-02T03:32:31.928Z,7.05
2017-04-02T03:33:36.685Z,6.53
2017-04-02T03:34:42.163Z,6.20
2017-04-02T03:35:46.965Z,6.47
2017-04-02T03:36:52.524Z,5.75
2017-04-02T03:37:58.938Z,6.25
2017-04-02T03:39:04.177Z,7.08
2017-04-02T03:40:09.288Z,6.63
2017-04-02T03:41:14.867Z,6.58
2017-04-02T03:42:19.492Z,6.05
2017-04-02T03:43:25.065Z,5.95
2017-04-02T03:44:30.657Z,6.62
2017-04-02T03:45:36.265Z,5.95
2017-04-02T03:46:42.689Z,6.47
2017-04-02T03:47:47.448Z,6.15
2017-04-02T03:48:53.889Z,5.40
2017-04-02T03:49:58.645Z,5.32
2017-04-02T03:51:04.340Z,5.70
2017-04-02T03:52:09.881Z,5.73
2017-04-02T03:53:16.324Z,5.60
2017-04-02T03:54:21.279Z,5.75
2017-04-02T03:55:26.889Z,6.67
2017-04-02T03:56:33.221Z,6.25
2017-04-02T03:57:37.997Z,5.88
2017-04-02T03:58:43.556Z,6.07
2017-04-02T03:59:50.746Z,6.25
2017-04-02T04:00:56.263Z,5.98
2017-04-02T04:02:01.044Z,6.45
2017-04-02T04:03:06.665Z,6.15
2017-04-02T04:04:12.144Z,6.40
2017-04-02T04:05:18.384Z,5.88
2017-04-02T04:06:23.199Z,6.70
2017-04-02T04:07:28.669Z,6.50
2017-04-02T04:08:34.252Z,6.22
2017-04-02T04:09:40.572Z,6.48
2017-04-02T04:10:46.306Z,5.60
2017-04-02T04:11:51.885Z,6.83
2017-04-02T04:12:56.734Z,6.18
2017-04-02T04:14:02.288Z,6.57
2017-04-02T04:15:07.777Z,6.32
2017-04-02T04:16:14.173Z,6.88
2017-04-02T04:17:18.929Z,6.53
2017-04-02T04:18:24.433Z,6.72
2017-04-02T04:19:30.025Z,6.75
2017-04-02T04:20:36.409Z,7.33
2017-04-02T04:21:42.173Z,6.80
2017-04-02T04:22:47.657Z,6.88
2017-04-02T04:23:52.537Z,6.03
2017-04-02T04:24:58.170Z,5.65
2017-04-02T04:26:03.761Z,6.50
2017-04-02T04:27:08.444Z,5.92
2017-04-02T04:28:13.988Z,6.08
2017-04-02T04:29:19.557Z,6.67
2017-04-02T04:30:24.348Z,6.23
2017-04-02T04:31:29.866Z,5.88
2017-04-02T04:32:34.685Z,5.83
2017-04-02T04:33:40.929Z,6.18
2017-04-02T04:34:45.739Z,6.80
2017-04-02T04:35:51.152Z,6.70
2017-04-02T04:36:56.862Z,6.07
2017-04-02T04:38:01.572Z,5.78
2017-04-02T04:39:08.186Z,5.85
2017-04-02T04:40:14.573Z,6.98
2017-04-02T04:41:19.322Z,7.17
2017-04-02T04:42:25.668Z,6.78
2017-04-02T04:43:30.689Z,5.92
2017-04-02T04:44:36.076Z,5.95
2017-04-02T04:45:42.453Z,7.20
2017-04-02T04:46:47.384Z,6.45
2017-04-02T04:47:52.981Z,6.52
2017-04-02T04:48:59.313Z,6.00
2017-04-02T04:50:04.868Z,7.28
2017-04-02T04:51:10.436Z,7.80
2017-04-02T04:52:15.124Z,6.48
2017-04-02T04:53:19.802Z,6.37
2017-04-02T04:54:26.177Z,6.38
2017-04-02T04:55:30.927Z,7.70
2017-04-02T04:56:36.446Z,6.68
2017-04-02T04:57:41.234Z,6.12
2017-04-02T04:58:46.805Z,6.87
2017-04-02T04:59:54.390Z,6.65
2017-04-02T05:00:59.211Z,6.42
2017-04-02T05:02:04.721Z,6.70
2017-04-02T05:03:10.321Z,6.15
2017-04-02T05:04:16.746Z,6.80
2017-04-02T05:05:21.572Z,6.98
2017-04-02T05:06:27.141Z,6.58
2017-04-02T05:07:33.504Z,7.05
2017-04-02T05:08:38.172Z,6.80
2017-04-02T05:09:43.744Z,6.38
2017-04-02T05:10:48.514Z,6.08
2017-04-02T05:11:54.900Z,6.90
2017-04-02T05:12:59.740Z,6.15
2017-04-02T05:14:05.219Z,6.25
2017-04-02T05:15:11.412Z,6.37
2017-04-02T05:16:16.325Z,6.28
2017-04-02T05:17:21.941Z,6.57
2017-04-02T05:18:27.488Z,5.98
2017-04-02T05:19:32.235Z,6.80
2017-04-02T05:20:37.681Z,6.30
2017-04-02T05:21:43.149Z,7.57
2017-04-02T05:22:47.901Z,7.40
2017-04-02T05:23:54.277Z,7.78
2017-04-02T05:24:59.068Z,9.22
2017-04-02T05:26:04.606Z,9.68
2017-04-02T05:27:10.270Z,10.20
2017-04-02T05:28:16.554Z,10.02
2017-04-02T05:29:21.385Z,11.97
2017-04-02T05:30:27.000Z,10.65
2017-04-02T05:31:32.672Z,9.30
2017-04-02T05:32:39.277Z,10.82
2017-04-02T05:33:44.060Z,12.63
2017-04-02T05:34:49.664Z,18.18
2017-04-02T05:35:54.381Z,14.93
2017-04-02T05:36:59.781Z,18.53
2017-04-02T05:38:05.436Z,21.23
2017-04-02T05:39:10.936Z,21.60
2017-04-02T05:40:15.696Z,23.15
2017-04-02T05:41:21.157Z,23.50
2017-04-02T05:42:26.792Z,24.52
2017-04-02T05:43:31.564Z,25.97
2017-04-02T05:44:37.197Z,25.62
2017-04-02T05:45:42.680Z,24.45
2017-04-02T05:46:47.368Z,24.93
2017-04-02T05:47:52.801Z,25.17
2017-04-02T05:48:57.616Z,25.02
2017-04-02T05:50:03.172Z,25.30
2017-04-02T05:51:09.473Z,24.87
2017-04-02T05:52:15.097Z,25.27
2017-04-02T05:53:19.876Z,25.42
2017-04-02T05:54:26.377Z,25.80
2017-04-02T05:55:31.898Z,27.00
2017-04-02T05:56:36.640Z,26.57
2017-04-02T05:57:42.132Z,28.00
2017-04-02T05:58:47.700Z,25.78
2017-04-02T05:59:53.317Z,26.32
2017-04-02T06:00:58.135Z,28.58
2017-04-02T06:02:03.691Z,26.90
2017-04-02T06:03:09.392Z,25.32
2017-04-02T06:04:14.845Z,25.90
2017-04-02T06:05:19.552Z,25.27
2017-04-02T06:06:25.842Z,27.92
2017-04-02T06:07:30.620Z,25.70
2017-04-02T06:08:36.172Z,24.78
2017-04-02T06:09:42.638Z,28.38
2017-04-02T06:10:47.369Z,27.37
2017-04-02T06:11:52.804Z,26.63
2017-04-02T06:12:58.222Z,26.22
2017-04-02T06:14:03.036Z,26.33
2017-04-02T06:15:08.641Z,27.05
2017-04-02T06:16:14.297Z,27.37
2017-04-02T06:17:20.528Z,30.65
2017-04-02T06:18:25.346Z,28.27
2017-04-02T06:19:30.894Z,27.65
2017-04-02T06:20:36.365Z,26.93
2017-04-02T06:21:42.873Z,28.33
2017-04-02T06:22:47.549Z,29.03
2017-04-02T06:23:53.120Z,26.53
2017-04-02T06:24:58.701Z,28.28
2017-04-02T06:26:04.285Z,31.05
2017-04-02T06:27:10.609Z,28.68
2017-04-02T06:28:16.948Z,29.50
2017-04-02T06:29:21.907Z,28.58
2017-04-02T06:30:28.274Z,27.80
2017-04-02T06:31:32.958Z,30.82
2017-04-02T06:32:39.221Z,30.18
2017-04-02T06:33:44.753Z,30.22
2017-04-02T06:34:50.514Z,29.12
2017-04-02T06:35:56.237Z,30.37
2017-04-02T06:37:00.948Z,31.22
2017-04-02T06:38:06.574Z,29.52
2017-04-02T06:39:11.963Z,31.60
2017-04-02T06:40:17.469Z,32.27
2017-04-02T06:41:22.299Z,30.08
2017-04-02T06:42:27.820Z,30.02
2017-04-02T06:43:33.323Z,30.92
2017-04-02T06:44:38.785Z,31.03
2017-04-02T06:45:44.414Z,29.95
2017-04-02T06:46:50.692Z,30.17
2017-04-02T06:47:55.540Z,29.70
2017-04-02T06:49:01.903Z,28.73
2017-04-02T06:50:07.420Z,31.47
2017-04-02T06:51:12.120Z,29.97
2017-04-02T06:52:16.812Z,30.90
2017-04-02T06:53:22.261Z,31.98
2017-04-02T06:54:27.124Z,31.60
2017-04-02T06:55:32.654Z,30.42
2017-04-02T06:56:39.021Z,29.53
2017-04-02T06:57:43.905Z,30.00
2017-04-02T06:58:49.478Z,31.13
2017-04-02T06:59:55.908Z,29.82
2017-04-02T07:01:00.694Z,30.18
2017-04-02T07:02:07.077Z,30.77
2017-04-02T07:03:12.609Z,29.15
2017-04-02T07:04:17.649Z,31.62
2017-04-02T07:05:23.312Z,32.48
2017-04-02T07:06:30.292Z,30.75
2017-04-02T07:07:36.077Z,32.17
2017-04-02T07:08:40.866Z,31.83
2017-04-02T07:09:46.396Z,33.10
2017-04-02T07:10:52.024Z,31.87
2017-04-02T07:11:57.557Z,30.53
2017-04-02T07:13:03.900Z,32.77
2017-04-02T07:14:08.630Z,31.05
2017-04-02T07:15:14.273Z,30.58
2017-04-02T07:16:19.954Z,32.25
2017-04-02T07:17:25.561Z,33.15
2017-04-02T07:18:31.898Z,32.30
2017-04-02T07:19:37.494Z,32.38
2017-04-02T07:20:42.196Z,32.92
2017-04-02T07:21:47.821Z,33.23
2017-04-02T07:22:53.352Z,33.10
2017-04-02T07:23:58.814Z,32.40
2017-04-02T07:25:04.364Z,32.73
2017-04-02T07:26:09.103Z,33.82
2017-04-02T07:27:15.501Z,35.73
2017-04-02T07:28:20.285Z,30.98
2017-04-02T07:29:26.697Z,32.30
2017-04-02T07:30:31.689Z,31.30
2017-04-02T07:31:37.308Z,31.63
2017-04-02T07:32:43.645Z,31.83
2017-04-02T07:33:48.513Z,33.45
2017-04-02T07:34:54.781Z,31.93
2017-04-02T07:36:00.315Z,30.82
2017-04-02T07:37:05.246Z,31.82
2017-04-02T07:38:10.012Z,31.58
2017-04-02T07:39:15.481Z,30.42
2017-04-02T07:40:21.033Z,29.83
2017-04-02T07:41:27.160Z,30.43
2017-04-02T07:42:32.830Z,31.33
2017-04-02T07:43:37.510Z,30.00
2017-04-02T07:44:43.780Z,29.57
2017-04-02T07:45:49.341Z,29.53
2017-04-02T07:46:54.729Z,30.40
2017-04-02T07:47:59.618Z,30.70
2017-04-02T07:49:05.301Z,30.02
2017-04-02T07:50:11.685Z,29.75
2017-04-02T07:51:16.573Z,28.88
2017-04-02T07:52:22.868Z,29.43
2017-04-02T07:53:28.386Z,30.17
2017-04-02T07:54:33.915Z,27.93
2017-04-02T07:55:39.560Z,28.75
2017-04-02T07:56:45.101Z,27.95
2017-04-02T07:57:50.088Z,29.65
2017-04-02T07:58:55.684Z,29.07
2017-04-02T08:00:02.089Z,28.40
2017-04-02T08:01:06.926Z,29.05
2017-04-02T08:02:12.388Z,29.37
2017-04-02T08:03:17.288Z,28.58
2017-04-02T08:04:22.765Z,27.15
2017-04-02T08:05:28.218Z,27.88
2017-04-02T08:06:33.736Z,29.10
2017-04-02T08:07:40.138Z,30.80
2017-04-02T08:08:44.844Z,30.60
2017-04-02T08:09:50.433Z,32.28
2017-04-02T08:10:55.973Z,31.07
2017-04-02T08:12:02.410Z,31.15
2017-04-02T08:13:07.193Z,30.70
2017-04-02T08:14:13.502Z,30.38
2017-04-02T08:15:19.015Z,30.20
2017-04-02T08:16:23.898Z,30.62
2017-04-02T08:17:29.353Z,31.12
2017-04-02T08:18:35.690Z,30.57
2017-04-02T08:19:40.466Z,29.02
2017-04-02T08:20:46.124Z,30.90
2017-04-02T08:21:51.686Z,28.67
2017-04-02T08:22:57.126Z,29.75
2017-04-02T08:24:03.525Z,28.68
2017-04-02T08:25:08.165Z,31.82
2017-04-02T08:26:14.517Z,29.48
2017-04-02T08:27:19.436Z,29.12
2017-04-02T08:28:25.696Z,28.97
2017-04-02T08:29:30.489Z,29.80
2017-04-02T08:30:36.168Z,29.58
2017-04-02T08:31:42.478Z,29.87
2017-04-02T08:32:48.046Z,31.77
2017-04-02T08:33:52.824Z,32.77
2017-04-02T08:34:58.419Z,31.97
2017-04-02T08:36:04.601Z,31.47
2017-04-02T08:37:09.585Z,32.53
2017-04-02T08:38:15.140Z,32.45
2017-04-02T08:39:21.551Z,34.33
2017-04-02T08:40:26.221Z,31.40
2017-04-02T08:41:31.834Z,30.83
2017-04-02T08:42:37.453Z,31.03
2017-04-02T08:43:43.085Z,32.90
2017-04-02T08:44:48.537Z,30.37
2017-04-02T08:45:54.170Z,30.28
2017-04-02T08:46:59.790Z,33.32
2017-04-02T08:48:05.446Z,32.07
2017-04-02T08:49:11.045Z,31.52
2017-04-02T08:50:17.412Z,29.57
2017-04-02T08:51:22.213Z,30.60
2017-04-02T08:52:28.517Z,31.02
2017-04-02T08:53:33.341Z,32.07
2017-04-02T08:54:39.701Z,32.22
2017-04-02T08:55:45.237Z,28.62
2017-04-02T08:56:50.004Z,30.83
2017-04-02T08:57:55.560Z,32.28
2017-04-02T08:59:00.244Z,31.57
2017-04-02T09:00:05.912Z,31.65
2017-04-02T09:01:11.277Z,31.20
2017-04-02T09:02:17.825Z,30.70
2017-04-02T09:03:22.718Z,31.27
2017-04-02T09:04:28.165Z,31.88
2017-04-02T09:05:34.609Z,32.32
2017-04-02T09:06:39.345Z,31.95
2017-04-02T09:07:45.769Z,31.37
2017-04-02T09:08:52.869Z,31.78
2017-04-02T09:09:57.957Z,32.10
2017-04-02T09:11:04.405Z,33.07
2017-04-02T09:12:09.897Z,33.87
2017-04-02T09:13:14.574Z,33.15
2017-04-02T09:14:20.100Z,33.00
2017-04-02T09:15:26.521Z,30.53
2017-04-02T09:16:32.081Z,31.95
2017-04-02T09:17:36.837Z,33.02
2017-04-02T09:18:42.537Z,32.18
2017-04-02T09:19:48.712Z,32.08
2017-04-02T09:20:53.556Z,31.55
2017-04-02T09:21:59.217Z,31.43
2017-04-02T09:23:04.729Z,32.83
2017-04-02T09:24:10.245Z,31.68
2017-04-02T09:25:15.808Z,32.68
2017-04-02T09:26:22.093Z,33.87
2017-04-02T09:27:27.019Z,31.10
2017-04-02T09:28:33.296Z,34.50
2017-04-02T09:29:38.198Z,31.85
2017-04-02T09:30:43.873Z,33.73
2017-04-02T09:31:49.513Z,33.12
2017-04-02T09:32:54.277Z,31.85
2017-04-02T09:34:00.633Z,33.12
2017-04-02T09:35:06.185Z,33.90
2017-04-02T09:36:10.981Z,31.95
2017-04-02T09:37:17.272Z,33.15
2017-04-02T09:38:22.188Z,35.73
2017-04-02T09:39:28.593Z,36.42
2017-04-02T09:40:34.236Z,34.55
2017-04-02T09:41:39.287Z,35.37
2017-04-02T09:42:45.589Z,36.07
2017-04-02T09:43:50.424Z,35.65
2017-04-02T09:44:56.005Z,35.67
2017-04-02T09:46:01.357Z,33.62
2017-04-02T09:47:07.006Z,35.70
2017-04-02T09:48:12.523Z,35.25
2017-04-02T09:49:18.179Z,35.35
2017-04-02T09:50:22.852Z,32.87
2017-04-02T09:51:29.200Z,34.88
2017-04-02T09:52:34.748Z,33.42
2017-04-02T09:53:39.633Z,36.05
2017-04-02T09:54:45.965Z,33.55
2017-04-02T09:55:51.549Z,33.72
2017-04-02T09:56:56.504Z,35.75
2017-04-02T09:58:01.163Z,35.38
2017-04-02T09:59:07.469Z,35.22
2017-04-02T10:00:13.162Z,38.68
2017-04-02T10:01:18.742Z,33.03
2017-04-02T10:02:23.677Z,35.57
2017-04-02T10:03:30.034Z,35.65
2017-04-02T10:04:34.895Z,35.15
2017-04-02T10:05:40.541Z,34.30
2017-04-02T10:06:46.105Z,32.65
2017-04-02T10:07:51.512Z,35.32
2017-04-02T10:08:56.222Z,36.00
2017-04-02T10:10:02.584Z,34.65
2017-04-02T10:11:07.662Z,34.02
2017-04-02T10:12:13.093Z,33.77
2017-04-02T10:13:19.468Z,34.77
2017-04-02T10:14:24.432Z,35.20
2017-04-02T10:15:30.684Z,34.20
2017-04-02T10:16:35.581Z,34.97
2017-04-02T10:17:41.034Z,37.77
2017-04-02T10:18:45.796Z,35.95
2017-04-02T10:19:51.398Z,37.62
2017-04-02T10:20:56.101Z,39.00
2017-04-02T10:22:01.629Z,37.20
2017-04-02T10:23:07.776Z,36.72
2017-04-02T10:24:12.672Z,37.05
2017-04-02T10:25:18.259Z,35.18
2017-04-02T10:26:23.871Z,32.37
2017-04-02T10:27:29.544Z,36.87
2017-04-02T10:28:35.089Z,35.20
2017-04-02T10:29:40.687Z,33.50
2017-04-02T10:30:46.244Z,35.65
2017-04-02T10:31:51.990Z,36.67
2017-04-02T10:32:56.873Z,35.17
2017-04-02T10:34:02.306Z,34.15
2017-04-02T10:35:08.746Z,33.57
2017-04-02T10:36:13.574Z,33.95
2017-04-02T10:37:19.069Z,35.25
2017-04-02T10:38:24.652Z,36.38
2017-04-02T10:39:30.113Z,33.20
2017-04-02T10:40:36.606Z,35.50
2017-04-02T10:41:41.242Z,34.00
2017-04-02T10:42:46.789Z,35.03
2017-04-02T10:43:52.405Z,34.17
2017-04-02T10:44:57.892Z,31.93
2017-04-02T10:46:04.305Z,36.48
2017-04-02T10:47:09.098Z,36.20
2017-04-02T10:48:14.662Z,35.37
2017-04-02T10:49:19.553Z,32.60
2017-04-02T10:50:24.916Z,33.97
2017-04-02T10:51:30.518Z,34.32
2017-04-02T10:52:36.130Z,34.98
2017-04-02T10:53:40.811Z,34.95
2017-04-02T10:54:46.457Z,35.15
2017-04-02T10:55:51.190Z,36.12
2017-04-02T10:56:56.676Z,33.70
2017-04-02T10:58:02.323Z,33.78
2017-04-02T10:59:07.824Z,31.48
2017-04-02T11:00:13.373Z,33.97
2017-04-02T11:01:19.636Z,32.52
2017-04-02T11:02:24.752Z,32.00
2017-04-02T11:03:30.892Z,30.10
2017-04-02T11:04:35.861Z,32.95
2017-04-02T11:05:41.426Z,31.97
2017-04-02T11:06:46.141Z,31.82
2017-04-02T11:07:50.889Z,31.38
2017-04-02T11:08:56.413Z,33.92
2017-04-02T11:10:02.034Z,28.62
2017-04-02T11:11:08.489Z,30.23
2017-04-02T11:12:14.029Z,31.98
2017-04-02T11:13:19.605Z,32.53
2017-04-02T11:14:24.557Z,31.95
2017-04-02T11:15:29.276Z,34.02
2017-04-02T11:16:34.837Z,31.85
2017-04-02T11:17:40.321Z,30.30
2017-04-02T11:18:45.864Z,30.40
2017-04-02T11:19:51.519Z,31.38
2017-04-02T11:20:57.158Z,30.08
2017-04-02T11:22:02.780Z,30.30
2017-04-02T11:23:09.144Z,31.72
2017-04-02T11:24:14.064Z,27.63
2017-04-02T11:25:18.779Z,27.83
2017-04-02T11:26:24.385Z,25.57
2017-04-02T11:27:29.864Z,25.07
2017-04-02T11:28:35.447Z,24.52
2017-04-02T11:29:41.765Z,27.90
2017-04-02T11:30:47.394Z,27.55
2017-04-02T11:31:52.215Z,28.97
2017-04-02T11:32:57.758Z,30.23
2017-04-02T11:34:03.409Z,29.32
2017-04-02T11:35:09.780Z,27.43
2017-04-02T11:36:14.669Z,28.60
2017-04-02T11:37:21.182Z,28.42
2017-04-02T11:38:26.373Z,27.20
2017-04-02T11:39:31.784Z,27.03
2017-04-02T11:40:37.414Z,26.90
2017-04-02T11:41:42.925Z,28.03
2017-04-02T11:42:49.292Z,28.58
2017-04-02T11:43:54.157Z,28.67
2017-04-02T11:45:00.400Z,30.68
2017-04-02T11:46:05.977Z,30.73
2017-04-02T11:47:11.481Z,28.03
2017-04-02T11:48:16.246Z,29.98
2017-04-02T11:49:21.700Z,29.55
2017-04-02T11:50:26.509Z,30.18
2017-04-02T11:51:32.784Z,29.90
2017-04-02T11:52:37.600Z,28.25
2017-04-02T11:53:43.150Z,28.47
2017-04-02T11:54:49.604Z,29.38
2017-04-02T11:55:55.204Z,29.33
2017-04-02T11:57:00.707Z,30.48
2017-04-02T11:58:05.592Z,29.42
2017-04-02T11:59:11.093Z,30.90
2017-04-02T12:00:17.490Z,30.02
2017-04-02T12:01:22.956Z,32.10
2017-04-02T12:02:28.536Z,30.17
2017-04-02T12:03:33.392Z,32.20
2017-04-02T12:04:38.088Z,30.18
2017-04-02T12:05:43.788Z,30.30
2017-04-02T12:06:50.239Z,31.98
2017-04-02T12:07:55.243Z,31.28
2017-04-02T12:09:01.474Z,30.83
2017-04-02T12:10:06.411Z,31.45
2017-04-02T12:11:12.085Z,32.05
2017-04-02T12:12:18.283Z,29.75
2017-04-02T12:13:22.964Z,30.92
2017-04-02T12:14:29.282Z,31.17
2017-04-02T12:15:34.072Z,30.83
2017-04-02T12:16:40.480Z,31.20
2017-04-02T12:17:45.288Z,31.13
2017-04-02T12:18:51.781Z,31.30
2017-04-02T12:19:56.639Z,30.97
2017-04-02T12:21:02.282Z,31.15
2017-04-02T12:22:07.873Z,33.52
2017-04-02T12:23:13.370Z,32.07
2017-04-02T12:24:19.529Z,31.70
2017-04-02T12:25:25.185Z,30.90
2017-04-02T12:26:30.792Z,30.80
2017-04-02T12:27:36.465Z,30.65
2017-04-02T12:28:42.196Z,29.83
2017-04-02T12:29:47.889Z,30.58
2017-04-02T12:30:53.474Z,31.68
2017-04-02T12:31:58.326Z,29.78
2017-04-02T12:33:04.581Z,31.20
2017-04-02T12:34:10.136Z,30.55
2017-04-02T12:35:15.012Z,31.63
2017-04-02T12:36:21.255Z,31.32
2017-04-02T12:37:26.206Z,31.12
2017-04-02T12:38:31.716Z,30.55
2017-04-02T12:39:38.165Z,27.53
2017-04-02T12:40:43.754Z,28.27
2017-04-02T12:41:48.569Z,28.87
2017-04-02T12:42:54.981Z,30.92
2017-04-02T12:43:59.940Z,28.45
2017-04-02T12:45:05.521Z,30.90
2017-04-02T12:46:11.884Z,30.15
2017-04-02T12:47:16.866Z,29.23
2017-04-02T12:48:23.256Z,29.00
2017-04-02T12:49:28.822Z,29.70
2017-04-02T12:50:33.845Z,28.38
2017-04-02T12:51:38.522Z,27.33
2017-04-02T12:52:44.801Z,29.35
2017-04-02T12:53:49.785Z,29.87
2017-04-02T12:54:56.277Z,30.28
2017-04-02T12:56:01.037Z,29.08
2017-04-02T12:57:07.350Z,27.97
2017-04-02T12:58:12.905Z,30.53
2017-04-02T12:59:17.616Z,31.65
2017-04-02T13:00:22.341Z,31.77
2017-04-02T13:01:27.869Z,31.25
2017-04-02T13:02:32.658Z,31.35
2017-04-02T13:03:39.053Z,29.17
2017-04-02T13:04:44.689Z,30.68
2017-04-02T13:05:50.253Z,29.78
2017-04-02T13:06:54.944Z,31.28
2017-04-02T13:08:01.333Z,29.70
2017-04-02T13:09:06.318Z,27.38
2017-04-02T13:10:11.821Z,29.58
2017-04-02T13:11:18.282Z,27.37
2017-04-02T13:12:23.137Z,28.40
2017-04-02T13:13:28.676Z,27.95
2017-04-02T13:14:34.073Z,27.53
2017-04-02T13:15:39.624Z,26.90
2017-04-02T13:16:45.334Z,25.23
2017-04-02T13:17:49.965Z,24.97
2017-04-02T13:18:54.812Z,26.55
2017-04-02T13:20:00.270Z,26.20
2017-04-02T13:21:06.593Z,24.75
2017-04-02T13:22:12.219Z,26.67
2017-04-02T13:23:17.655Z,26.23
2017-04-02T13:24:22.485Z,27.45
2017-04-02T13:25:28.173Z,27.68
2017-04-02T13:26:34.465Z,26.37
2017-04-02T13:27:39.361Z,27.18
2017-04-02T13:28:45.700Z,26.43
2017-04-02T13:29:51.296Z,24.97
2017-04-02T13:30:57.005Z,26.58
2017-04-02T13:32:02.504Z,26.10
2017-04-02T13:33:08.158Z,24.07
2017-04-02T13:34:12.929Z,26.02
2017-04-02T13:35:18.568Z,25.53
2017-04-02T13:36:24.754Z,24.52
2017-04-02T13:37:30.390Z,24.25
2017-04-02T13:38:35.212Z,24.48
2017-04-02T13:39:40.847Z,23.90
2017-04-02T13:40:45.579Z,23.55
2017-04-02T13:41:51.029Z,24.73
2017-04-02T13:42:57.261Z,25.70
2017-04-02T13:44:02.297Z,24.03
2017-04-02T13:45:08.580Z,24.55
2017-04-02T13:46:14.402Z,23.20
2017-04-02T13:47:20.097Z,24.93
2017-04-02T13:48:25.029Z,23.53
2017-04-02T13:49:30.752Z,23.27
2017-04-02T13:50:37.157Z,24.28
2017-04-02T13:51:42.742Z,24.72
2017-04-02T13:52:48.274Z,24.95
2017-04-02T13:53:53.177Z,25.37
2017-04-02T13:54:57.921Z,22.92
2017-04-02T13:56:03.617Z,24.62
2017-04-02T13:57:08.997Z,22.45
2017-04-02T13:58:14.609Z,24.03
2017-04-02T13:59:20.344Z,23.70
2017-04-02T14:00:26.361Z,24.42
2017-04-02T14:01:31.761Z,23.33
2017-04-02T14:02:36.773Z,23.62
2017-04-02T14:03:42.292Z,22.98
2017-04-02T14:04:47.822Z,23.32
2017-04-02T14:05:54.297Z,24.58
2017-04-02T14:06:59.177Z,21.48
2017-04-02T14:08:04.793Z,23.15
2017-04-02T14:09:09.557Z,22.87
2017-04-02T14:10:14.316Z,21.87
2017-04-02T14:11:20.890Z,22.52
2017-04-02T14:12:26.497Z,21.47
2017-04-02T14:13:31.363Z,22.00
2017-04-02T14:14:37.778Z,23.05